sensor_id;sensor_type;location;lat;lon;timestamp;pressure;altitude;pressure_sealevel;temperature;humidity
43770;BME280;6597;52.218;9.882;2023-02-21T00:00:01;100810.25;;;8.69;100.00
43770;BME280;6597;52.218;9.882;2023-02-21T00:02:46;100812.00;;;8.69;100.00
43770;BME280;6597;52.218;9.882;2023-02-21T00:05:30;100814.63;;;8.69;100.00
43770;BME280;6597;52.218;9.882;2023-02-21T00:08:14;100823.34;;;8.69;100.00
43770;BME280;6597;52.218;9.882;2023-02-21T00:10:58;100819.88;;;8.69;100.00
43770;BME280;6597;52.218;9.882;2023-02-21T00:13:44;100820.78;;;8.68;100.00
43770;BME280;6597;52.218;9.882;2023-02-21T00:16:28;100823.47;;;8.65;100.00
43770;BME280;6597;52.218;9.882;2023-02-21T00:19:12;100817.41;;;8.63;100.00
43770;BME280;6597;52.218;9.882;2023-02-21T00:21:56;100820.13;;;8.60;100.00
43770;BME280;6597;52.218;9.882;2023-02-21T00:24:41;100814.84;;;8.61;100.00
43770;BME280;6597;52.218;9.882;2023-02-21T00:27:25;100811.28;;;8.64;100.00
43770;BME280;6597;52.218;9.882;2023-02-21T00:30:13;100826.16;;;8.62;100.00
43770;BME280;6597;52.218;9.882;2023-02-21T00:32:57;100819.22;;;8.61;100.00
43770;BME280;6597;52.218;9.882;2023-02-21T00:35:41;100819.25;;;8.59;100.00
43770;BME280;6597;52.218;9.882;2023-02-21T00:38:25;100822.81;;;8.57;100.00
43770;BME280;6597;52.218;9.882;2023-02-21T00:41:09;100804.53;;;8.55;100.00
43770;BME280;6597;52.218;9.882;2023-02-21T00:43:54;100820.25;;;8.55;100.00
43770;BME280;6597;52.218;9.882;2023-02-21T00:46:39;100807.88;;;8.60;100.00
43770;BME280;6597;52.218;9.882;2023-02-21T00:49:23;100809.59;;;8.61;100.00
43770;BME280;6597;52.218;9.882;2023-02-21T00:52:08;100811.41;;;8.59;100.00
43770;BME280;6597;52.218;9.882;2023-02-21T00:54:54;100799.13;;;8.61;100.00
43770;BME280;6597;52.218;9.882;2023-02-21T00:57:38;100794.00;;;8.58;100.00
43770;BME280;6597;52.218;9.882;2023-02-21T01:00:23;100801.97;;;8.54;100.00
43770;BME280;6597;52.218;9.882;2023-02-21T01:03:09;100804.63;;;8.52;100.00
43770;BME280;6597;52.218;9.882;2023-02-21T01:05:55;100803.75;;;8.52;100.00
43770;BME280;6597;52.218;9.882;2023-02-21T01:08:41;100807.28;;;8.51;100.00
43770;BME280;6597;52.218;9.882;2023-02-21T01:11:26;100812.50;;;8.51;100.00
43770;BME280;6597;52.218;9.882;2023-02-21T01:14:10;100810.59;;;8.57;100.00
43770;BME280;6597;52.218;9.882;2023-02-21T01:16:54;100807.13;;;8.57;100.00
43770;BME280;6597;52.218;9.882;2023-02-21T01:19:40;100803.53;;;8.61;100.00
43770;BME280;6597;52.218;9.882;2023-02-21T01:22:24;100812.09;;;8.66;100.00
43770;BME280;6597;52.218;9.882;2023-02-21T01:25:08;100811.06;;;8.71;100.00
43770;BME280;6597;52.218;9.882;2023-02-21T01:27:53;100805.84;;;8.71;100.00
43770;BME280;6597;52.218;9.882;2023-02-21T01:30:37;100812.78;;;8.72;100.00
43770;BME280;6597;52.218;9.882;2023-02-21T01:33:21;100811.03;;;8.73;100.00
43770;BME280;6597;52.218;9.882;2023-02-21T01:36:08;100809.34;;;8.70;100.00
43770;BME280;6597;52.218;9.882;2023-02-21T01:38:53;100814.50;;;8.73;100.00
43770;BME280;6597;52.218;9.882;2023-02-21T01:41:38;100816.25;;;8.73;100.00
43770;BME280;6597;52.218;9.882;2023-02-21T01:44:33;100811.94;;;8.72;100.00
43770;BME280;6597;52.218;9.882;2023-02-21T01:47:18;100815.44;;;8.71;100.00
43770;BME280;6597;52.218;9.882;2023-02-21T01:50:06;100818.03;;;8.72;100.00
43770;BME280;6597;52.218;9.882;2023-02-21T01:52:53;100811.06;;;8.71;100.00
43770;BME280;6597;52.218;9.882;2023-02-21T01:55:39;100818.88;;;8.73;100.00
43770;BME280;6597;52.218;9.882;2023-02-21T01:58:26;100820.50;;;8.77;100.00
43770;BME280;6597;52.218;9.882;2023-02-21T02:01:18;100820.47;;;8.80;100.00
43770;BME280;6597;52.218;9.882;2023-02-21T02:04:03;100815.22;;;8.80;100.00
43770;BME280;6597;52.218;9.882;2023-02-21T02:06:48;100821.22;;;8.84;100.00
43770;BME280;6597;52.218;9.882;2023-02-21T02:09:33;100816.72;;;8.89;100.00
43770;BME280;6597;52.218;9.882;2023-02-21T02:12:56;100816.00;;;8.84;100.00
43770;BME280;6597;52.218;9.882;2023-02-21T02:15:43;100813.34;;;8.85;100.00
43770;BME280;6597;52.218;9.882;2023-02-21T02:18:31;100807.13;;;8.89;100.00
43770;BME280;6597;52.218;9.882;2023-02-21T02:21:26;100810.56;;;8.91;100.00
43770;BME280;6597;52.218;9.882;2023-02-21T02:24:26;100810.59;;;8.90;100.00
43770;BME280;6597;52.218;9.882;2023-02-21T02:27:24;100810.56;;;8.91;100.00
43770;BME280;6597;52.218;9.882;2023-02-21T02:33:32;100819.31;;;8.90;100.00
43770;BME280;6597;52.218;9.882;2023-02-21T02:36:09;100820.94;;;8.94;100.00
43770;BME280;6597;52.218;9.882;2023-02-21T02:38:47;100827.13;;;8.92;100.00
43770;BME280;6597;52.218;9.882;2023-02-21T02:41:23;100832.31;;;8.93;100.00
43770;BME280;6597;52.218;9.882;2023-02-21T02:43:54;100825.19;;;8.98;100.00
43770;BME280;6597;52.218;9.882;2023-02-21T02:46:26;100827.00;;;8.96;100.00
43770;BME280;6597;52.218;9.882;2023-02-21T02:48:58;100825.34;;;8.92;100.00
43770;BME280;6597;52.218;9.882;2023-02-21T02:51:28;100833.13;;;8.95;100.00
43770;BME280;6597;52.218;9.882;2023-02-21T02:53:58;100832.31;;;8.93;100.00
43770;BME280;6597;52.218;9.882;2023-02-21T02:56:24;100828.78;;;8.94;100.00
43770;BME280;6597;52.218;9.882;2023-02-21T02:58:55;100826.13;;;8.96;100.00
43770;BME280;6597;52.218;9.882;2023-02-21T03:01:43;100827.13;;;8.92;100.00
43770;BME280;6597;52.218;9.882;2023-02-21T03:04:31;100825.31;;;8.94;100.00
43770;BME280;6597;52.218;9.882;2023-02-21T03:07:06;100828.88;;;8.91;100.00
43770;BME280;6597;52.218;9.882;2023-02-21T03:09:46;100826.19;;;8.94;100.00
43770;BME280;6597;52.218;9.882;2023-02-21T03:12:19;100826.22;;;8.93;100.00
43770;BME280;6597;52.218;9.882;2023-02-21T03:14:58;100821.94;;;8.90;100.00
43770;BME280;6597;52.218;9.882;2023-02-21T03:17:27;100827.16;;;8.90;100.00
43770;BME280;6597;52.218;9.882;2023-02-21T03:19:56;100826.22;;;8.93;100.00
43770;BME280;6597;52.218;9.882;2023-02-21T03:22:27;100812.34;;;8.89;100.00
43770;BME280;6597;52.218;9.882;2023-02-21T03:24:57;100814.03;;;8.92;100.00
43770;BME280;6597;52.218;9.882;2023-02-21T03:27:26;100825.34;;;8.92;100.00
43770;BME280;6597;52.218;9.882;2023-02-21T03:30:16;100814.13;;;8.89;100.00
43770;BME280;6597;52.218;9.882;2023-02-21T03:32:46;100811.66;;;8.83;100.00
43770;BME280;6597;52.218;9.882;2023-02-21T03:35:16;100795.31;;;8.73;100.00
43770;BME280;6597;52.218;9.882;2023-02-21T03:37:45;100808.38;;;8.74;100.00
43770;BME280;6597;52.218;9.882;2023-02-21T03:40:15;100800.78;;;8.65;100.00
43770;BME280;6597;52.218;9.882;2023-02-21T03:42:46;100792.97;;;8.64;100.00
43770;BME280;6597;52.218;9.882;2023-02-21T03:45:16;100793.03;;;8.61;100.00
43770;BME280;6597;52.218;9.882;2023-02-21T03:47:47;100796.56;;;8.60;100.00
43770;BME280;6597;52.218;9.882;2023-02-21T03:50:14;100788.06;;;8.52;100.00
43770;BME280;6597;52.218;9.882;2023-02-21T03:52:44;100788.91;;;8.52;100.00
43770;BME280;6597;52.218;9.882;2023-02-21T03:55:10;100789.00;;;8.49;100.00
43770;BME280;6597;52.218;9.882;2023-02-21T03:57:37;100784.63;;;8.50;100.00
43770;BME280;6597;52.218;9.882;2023-02-21T04:00:04;100786.47;;;8.46;100.00
43770;BME280;6597;52.218;9.882;2023-02-21T04:02:40;100789.88;;;8.50;100.00
43770;BME280;6597;52.218;9.882;2023-02-21T04:05:09;100788.06;;;8.52;100.00
43770;BME280;6597;52.218;9.882;2023-02-21T04:07:36;100786.25;;;8.54;100.00
43770;BME280;6597;52.218;9.882;2023-02-21T04:10:05;100784.50;;;8.54;100.00
43770;BME280;6597;52.218;9.882;2023-02-21T04:12:39;100782.63;;;8.59;100.00
43770;BME280;6597;52.218;9.882;2023-02-21T04:15:06;100781.72;;;8.60;100.00
43770;BME280;6597;52.218;9.882;2023-02-21T04:17:33;100784.31;;;8.62;100.00
43770;BME280;6597;52.218;9.882;2023-02-21T04:20:02;100782.41;;;8.67;100.00
43770;BME280;6597;52.218;9.882;2023-02-21T04:22:30;100791.09;;;8.69;100.00
43770;BME280;6597;52.218;9.882;2023-02-21T04:24:57;100791.00;;;8.72;100.00
43770;BME280;6597;52.218;9.882;2023-02-21T04:27:25;100779.59;;;8.74;100.00
43770;BME280;6597;52.218;9.882;2023-02-21T04:29:54;100783.78;;;8.82;100.00
43770;BME280;6597;52.218;9.882;2023-02-21T04:32:21;100772.41;;;8.83;100.00
43770;BME280;6597;52.218;9.882;2023-02-21T04:34:48;100771.47;;;8.85;100.00
43770;BME280;6597;52.218;9.882;2023-02-21T04:37:14;100778.31;;;8.89;100.00
43770;BME280;6597;52.218;9.882;2023-02-21T04:39:42;100771.41;;;8.87;100.00
43770;BME280;6597;52.218;9.882;2023-02-21T04:42:08;100761.66;;;8.92;100.00
43770;BME280;6597;52.218;9.882;2023-02-21T04:44:37;100762.38;;;8.97;100.00
43770;BME280;6597;52.218;9.882;2023-02-21T04:47:03;100768.53;;;8.96;100.00
43770;BME280;6597;52.218;9.882;2023-02-21T04:49:30;100770.25;;;8.97;100.00
43770;BME280;6597;52.218;9.882;2023-02-21T04:51:56;100771.97;;;8.98;100.00
43770;BME280;6597;52.218;9.882;2023-02-21T04:54:23;100763.16;;;9.00;100.00
43770;BME280;6597;52.218;9.882;2023-02-21T04:56:49;100765.81;;;8.99;100.00
43770;BME280;6597;52.218;9.882;2023-02-21T04:59:16;100757.09;;;8.98;100.00
43770;BME280;6597;52.218;9.882;2023-02-21T05:01:44;100759.81;;;8.95;100.00
43770;BME280;6597;52.218;9.882;2023-02-21T05:04:11;100754.50;;;8.98;100.00
43770;BME280;6597;52.218;9.882;2023-02-21T05:06:37;100754.41;;;9.01;100.00
43770;BME280;6597;52.218;9.882;2023-02-21T05:09:04;100752.72;;;8.99;100.00
43770;BME280;6597;52.218;9.882;2023-02-21T05:11:32;100747.31;;;9.05;100.00
43770;BME280;6597;52.218;9.882;2023-02-21T05:13:59;100751.75;;;9.03;100.00
43770;BME280;6597;52.218;9.882;2023-02-21T05:16:26;100759.59;;;9.03;100.00
43770;BME280;6597;52.218;9.882;2023-02-21T05:18:54;100768.22;;;9.07;100.00
43770;BME280;6597;52.218;9.882;2023-02-21T05:21:21;100771.78;;;9.04;100.00
43770;BME280;6597;52.218;9.882;2023-02-21T05:23:47;100769.22;;;9.02;100.00
43770;BME280;6597;52.218;9.882;2023-02-21T05:26:23;100779.72;;;9.01;100.00
43770;BME280;6597;52.218;9.882;2023-02-21T05:28:50;100772.13;;;8.92;100.00
43770;BME280;6597;52.218;9.882;2023-02-21T05:31:18;100767.53;;;9.00;100.00
43770;BME280;6597;52.218;9.882;2023-02-21T05:33:44;100774.44;;;9.02;100.00
43770;BME280;6597;52.218;9.882;2023-02-21T05:36:12;100777.88;;;9.04;100.00
43770;BME280;6597;52.218;9.882;2023-02-21T05:38:50;100781.56;;;8.97;100.00
43770;BME280;6597;52.218;9.882;2023-02-21T05:41:17;100781.66;;;8.94;100.00
43770;BME280;6597;52.218;9.882;2023-02-21T05:43:45;100782.63;;;8.92;100.00
43770;BME280;6597;52.218;9.882;2023-02-21T05:46:21;100783.47;;;8.92;100.00
43770;BME280;6597;52.218;9.882;2023-02-21T05:48:48;100782.66;;;8.90;100.00
43770;BME280;6597;52.218;9.882;2023-02-21T05:51:16;100783.56;;;8.89;100.00
43770;BME280;6597;52.218;9.882;2023-02-21T05:53:43;100782.69;;;8.89;100.00
43770;BME280;6597;52.218;9.882;2023-02-21T05:56:10;100786.41;;;8.82;100.00
43770;BME280;6597;52.218;9.882;2023-02-21T05:58:37;100796.00;;;8.81;100.00
43770;BME280;6597;52.218;9.882;2023-02-21T06:01:04;100792.50;;;8.82;100.00
43770;BME280;6597;52.218;9.882;2023-02-21T06:03:30;100795.91;;;8.84;100.00
43770;BME280;6597;52.218;9.882;2023-02-21T06:05:57;100791.59;;;8.83;100.00
43770;BME280;6597;52.218;9.882;2023-02-21T06:08:25;100787.28;;;8.81;100.00
43770;BME280;6597;52.218;9.882;2023-02-21T06:10:52;100791.53;;;8.85;100.00
43770;BME280;6597;52.218;9.882;2023-02-21T06:13:18;100791.53;;;8.85;100.00
43770;BME280;6597;52.218;9.882;2023-02-21T06:15:45;100791.41;;;8.89;100.00
43770;BME280;6597;52.218;9.882;2023-02-21T06:18:12;100800.13;;;8.90;100.00
43770;BME280;6597;52.218;9.882;2023-02-21T06:20:39;100799.25;;;8.89;100.00
43770;BME280;6597;52.218;9.882;2023-02-21T06:23:06;100794.13;;;8.86;100.00
43770;BME280;6597;52.218;9.882;2023-02-21T06:25:34;100801.06;;;8.87;100.00
43770;BME280;6597;52.218;9.882;2023-02-21T06:28:00;100795.75;;;8.90;100.00
43770;BME280;6597;52.218;9.882;2023-02-21T06:30:27;100796.81;;;8.83;100.00
43770;BME280;6597;52.218;9.882;2023-02-21T06:32:53;100795.91;;;8.84;100.00
43770;BME280;6597;52.218;9.882;2023-02-21T06:35:20;100806.22;;;8.90;100.00
43770;BME280;6597;52.218;9.882;2023-02-21T06:37:47;100802.69;;;8.91;100.00
43770;BME280;6597;52.218;9.882;2023-02-21T06:40:13;100810.47;;;8.94;100.00
43770;BME280;6597;52.218;9.882;2023-02-21T06:42:41;100803.56;;;8.92;100.00
43770;BME280;6597;52.218;9.882;2023-02-21T06:45:08;100800.91;;;8.93;100.00
43770;BME280;6597;52.218;9.882;2023-02-21T06:47:34;100798.28;;;8.93;100.00
43770;BME280;6597;52.218;9.882;2023-02-21T06:50:01;100806.22;;;8.90;100.00
43770;BME280;6597;52.218;9.882;2023-02-21T06:52:29;100815.69;;;8.94;100.00
43770;BME280;6597;52.218;9.882;2023-02-21T06:54:55;100815.75;;;8.93;100.00
43770;BME280;6597;52.218;9.882;2023-02-21T06:57:22;100820.00;;;8.97;100.00
43770;BME280;6597;52.218;9.882;2023-02-21T06:59:50;100825.16;;;9.00;100.00
43770;BME280;6597;52.218;9.882;2023-02-21T07:02:18;100819.94;;;8.98;100.00
43770;BME280;6597;52.218;9.882;2023-02-21T07:04:45;100824.16;;;9.04;100.00
43770;BME280;6597;52.218;9.882;2023-02-21T07:07:12;100819.81;;;9.03;100.00
43770;BME280;6597;52.218;9.882;2023-02-21T07:09:39;100826.69;;;9.07;100.00
43770;BME280;6597;52.218;9.882;2023-02-21T07:12:06;100825.81;;;9.07;100.00
43770;BME280;6597;52.218;9.882;2023-02-21T07:14:33;100831.88;;;9.09;100.00
43770;BME280;6597;52.218;9.882;2023-02-21T07:17:01;100824.03;;;9.09;100.00
43770;BME280;6597;52.218;9.882;2023-02-21T07:19:28;100829.22;;;9.10;100.00
43770;BME280;6597;52.218;9.882;2023-02-21T07:21:54;100829.22;;;9.10;100.00
43770;BME280;6597;52.218;9.882;2023-02-21T07:24:21;100835.34;;;9.09;100.00
43770;BME280;6597;52.218;9.882;2023-02-21T07:26:47;100838.81;;;9.11;100.00
43770;BME280;6597;52.218;9.882;2023-02-21T07:29:14;100848.25;;;9.17;100.00
43770;BME280;6597;52.218;9.882;2023-02-21T07:31:41;100844.75;;;9.18;100.00
43770;BME280;6597;52.218;9.882;2023-02-21T07:34:09;100844.81;;;9.15;100.00
43770;BME280;6597;52.218;9.882;2023-02-21T07:36:37;100843.16;;;9.12;100.00
43770;BME280;6597;52.218;9.882;2023-02-21T07:39:04;100845.81;;;9.11;100.00
43770;BME280;6597;52.218;9.882;2023-02-21T07:41:30;100844.97;;;9.09;100.00
43770;BME280;6597;52.218;9.882;2023-02-21T07:43:57;100850.16;;;9.10;100.00
43770;BME280;6597;52.218;9.882;2023-02-21T07:46:26;100859.00;;;9.06;100.00
43770;BME280;6597;52.218;9.882;2023-02-21T07:48:53;100865.09;;;9.07;100.00
43770;BME280;6597;52.218;9.882;2023-02-21T07:51:21;100865.91;;;9.09;100.00
43770;BME280;6597;52.218;9.882;2023-02-21T07:53:48;100869.31;;;9.14;100.00
43770;BME280;6597;52.218;9.882;2023-02-21T07:56:14;100870.13;;;9.16;100.00
43770;BME280;6597;52.218;9.882;2023-02-21T07:58:41;100868.50;;;9.10;100.00
43770;BME280;6597;52.218;9.882;2023-02-21T08:01:08;100878.06;;;9.13;100.00
43770;BME280;6597;52.218;9.882;2023-02-21T08:03:34;100872.69;;;9.17;100.00
43770;BME280;6597;52.218;9.882;2023-02-21T08:06:02;100878.91;;;9.13;100.00
43770;BME280;6597;52.218;9.882;2023-02-21T08:08:30;100883.28;;;9.13;100.00
43770;BME280;6597;52.218;9.882;2023-02-21T08:10:57;100880.03;;;9.03;100.00
43770;BME280;6597;52.218;9.882;2023-02-21T08:13:23;100883.44;;;9.07;100.00
43770;BME280;6597;52.218;9.882;2023-02-21T08:15:50;100894.72;;;9.09;100.00
43770;BME280;6597;52.218;9.882;2023-02-21T08:18:19;100892.88;;;9.14;100.00
43770;BME280;6597;52.218;9.882;2023-02-21T08:20:48;100894.53;;;9.16;100.00
43770;BME280;6597;52.218;9.882;2023-02-21T08:23:15;100897.94;;;9.20;100.00
43770;BME280;6597;52.218;9.882;2023-02-21T08:25:44;100891.16;;;9.13;100.00
43770;BME280;6597;52.218;9.882;2023-02-21T08:28:11;100889.41;;;9.13;100.00
43770;BME280;6597;52.218;9.882;2023-02-21T08:30:37;100897.94;;;9.20;100.00
43770;BME280;6597;52.218;9.882;2023-02-21T08:33:04;100903.91;;;9.25;100.00
43770;BME280;6597;52.218;9.882;2023-02-21T08:35:31;100904.91;;;9.21;100.00
43770;BME280;6597;52.218;9.882;2023-02-21T08:37:57;100903.88;;;9.26;100.00
43770;BME280;6597;52.218;9.882;2023-02-21T08:40:28;100906.25;;;9.34;100.00
43770;BME280;6597;52.218;9.882;2023-02-21T08:42:57;100909.56;;;9.41;100.00
43770;BME280;6597;52.218;9.882;2023-02-21T08:45:25;100909.50;;;9.44;100.00
43770;BME280;6597;52.218;9.882;2023-02-21T08:47:52;100911.28;;;9.43;100.00
43770;BME280;6597;52.218;9.882;2023-02-21T08:50:21;100916.44;;;9.46;100.00
43770;BME280;6597;52.218;9.882;2023-02-21T08:52:49;100915.72;;;9.40;100.00
43770;BME280;6597;52.218;9.882;2023-02-21T08:55:17;100911.59;;;9.31;100.00
43770;BME280;6597;52.218;9.882;2023-02-21T08:57:46;100925.41;;;9.36;100.00
43770;BME280;6597;52.218;9.882;2023-02-21T09:00:17;100917.50;;;9.38;100.00
43770;BME280;6597;52.218;9.882;2023-02-21T09:02:44;100924.50;;;9.37;100.00
43770;BME280;6597;52.218;9.882;2023-02-21T09:05:13;100921.66;;;9.46;100.00
43770;BME280;6597;52.218;9.882;2023-02-21T09:07:41;100916.28;;;9.51;100.00
43770;BME280;6597;52.218;9.882;2023-02-21T09:10:08;100915.31;;;9.55;100.00
43770;BME280;6597;52.218;9.882;2023-02-21T09:12:35;100920.50;;;9.56;100.00
43770;BME280;6597;52.218;9.882;2023-02-21T09:15:02;100920.91;;;9.72;100.00
43770;BME280;6597;52.218;9.882;2023-02-21T09:17:30;100919.94;;;9.76;100.00
43770;BME280;6597;52.218;9.882;2023-02-21T09:19:58;100905.78;;;9.82;100.00
43770;BME280;6597;52.218;9.882;2023-02-21T09:22:25;100897.31;;;9.72;100.00
43770;BME280;6597;52.218;9.882;2023-02-21T09:24:52;100899.63;;;9.83;100.00
43770;BME280;6597;52.218;9.882;2023-02-21T09:27:18;100885.53;;;9.87;100.00
43770;BME280;6597;52.218;9.882;2023-02-21T09:29:45;100897.63;;;9.91;100.00
43770;BME280;6597;52.218;9.882;2023-02-21T09:32:12;100899.06;;;10.01;100.00
43770;BME280;6597;52.218;9.882;2023-02-21T09:34:40;100897.34;;;10.00;100.00
43770;BME280;6597;52.218;9.882;2023-02-21T09:37:07;100899.03;;;10.03;100.00
43770;BME280;6597;52.218;9.882;2023-02-21T09:39:36;100902.41;;;10.06;100.00
43770;BME280;6597;52.218;9.882;2023-02-21T09:42:03;100889.22;;;10.09;100.00
43770;BME280;6597;52.218;9.882;2023-02-21T09:44:30;100902.16;;;10.15;100.00
43770;BME280;6597;52.218;9.882;2023-02-21T09:46:59;100902.25;;;10.12;100.00
43770;BME280;6597;52.218;9.882;2023-02-21T09:49:30;100898.97;;;10.04;100.00
43770;BME280;6597;52.218;9.882;2023-02-21T09:52:00;100908.44;;;10.10;100.00
43770;BME280;6597;52.218;9.882;2023-02-21T09:54:30;100914.50;;;10.12;100.00
43770;BME280;6597;52.218;9.882;2023-02-21T09:57:00;100913.53;;;10.14;100.00
43770;BME280;6597;52.218;9.882;2023-02-21T09:59:33;100913.19;;;10.26;100.00
43770;BME280;6597;52.218;9.882;2023-02-21T10:02:09;100918.19;;;10.34;100.00
43770;BME280;6597;52.218;9.882;2023-02-21T10:04:55;100920.91;;;10.31;100.00
43770;BME280;6597;52.218;9.882;2023-02-21T10:07:34;100922.47;;;10.37;100.00
43770;BME280;6597;52.218;9.882;2023-02-21T10:10:06;100922.56;;;10.34;100.00
43770;BME280;6597;52.218;9.882;2023-02-21T10:12:40;100914.81;;;10.31;100.00
43770;BME280;6597;52.218;9.882;2023-02-21T10:15:22;100920.75;;;10.36;100.00
43770;BME280;6597;52.218;9.882;2023-02-21T10:17:55;100919.38;;;10.52;100.00
43770;BME280;6597;52.218;9.882;2023-02-21T10:20:29;100918.69;;;10.47;100.00
43770;BME280;6597;52.218;9.882;2023-02-21T10:22:59;100919.03;;;10.35;100.00
43770;BME280;6597;52.218;9.882;2023-02-21T10:25:30;100920.63;;;10.40;100.00
43770;BME280;6597;52.218;9.882;2023-02-21T10:27:58;100918.28;;;10.59;100.00
43770;BME280;6597;52.218;9.882;2023-02-21T10:30:29;100923.72;;;10.53;100.00
43770;BME280;6597;52.218;9.882;2023-02-21T10:32:59;100926.78;;;10.39;100.00
43770;BME280;6597;52.218;9.882;2023-02-21T10:35:31;100932.06;;;10.38;100.00
43770;BME280;6597;52.218;9.882;2023-02-21T10:38:00;100933.16;;;10.31;100.00
43770;BME280;6597;52.218;9.882;2023-02-21T10:40:31;100934.88;;;10.32;100.00
43770;BME280;6597;52.218;9.882;2023-02-21T10:43:04;100926.00;;;10.36;100.00
43770;BME280;6597;52.218;9.882;2023-02-21T10:45:34;100928.13;;;10.52;100.00
43770;BME280;6597;52.218;9.882;2023-02-21T10:48:04;100926.94;;;10.61;100.00
43770;BME280;6597;52.218;9.882;2023-02-21T10:50:43;100931.44;;;10.57;100.00
43770;BME280;6597;52.218;9.882;2023-02-21T10:53:27;100933.25;;;10.55;100.00
43770;BME280;6597;52.218;9.882;2023-02-21T10:56:20;100925.19;;;10.62;100.00
43770;BME280;6597;52.218;9.882;2023-02-21T10:58:48;100928.56;;;10.65;100.00
43770;BME280;6597;52.218;9.882;2023-02-21T11:01:17;100929.78;;;10.81;100.00
43770;BME280;6597;52.218;9.882;2023-02-21T11:03:48;100928.94;;;10.81;100.00
43770;BME280;6597;52.218;9.882;2023-02-21T11:06:26;100929.00;;;10.79;99.83
43770;BME280;6597;52.218;9.882;2023-02-21T11:08:55;100936.72;;;10.84;100.00
43770;BME280;6597;52.218;9.882;2023-02-21T11:11:31;100938.59;;;10.80;99.22
43770;BME280;6597;52.218;9.882;2023-02-21T11:14:21;100931.59;;;11.06;99.19
43770;BME280;6597;52.218;9.882;2023-02-21T11:17:04;100929.00;;;11.04;98.16
43770;BME280;6597;52.218;9.882;2023-02-21T11:19:41;100927.56;;;11.20;97.86
43770;BME280;6597;52.218;9.882;2023-02-21T11:22:08;100918.28;;;11.35;96.29
43770;BME280;6597;52.218;9.882;2023-02-21T11:27:28;100932.09;;;11.17;96.90
43770;BME280;6597;52.218;9.882;2023-02-21T11:29:56;100926.44;;;11.52;95.21
43770;BME280;6597;52.218;9.882;2023-02-21T11:32:26;100926.38;;;11.79;93.84
43770;BME280;6597;52.218;9.882;2023-02-21T11:35:05;100936.50;;;11.65;93.38
43770;BME280;6597;52.218;9.882;2023-02-21T11:37:33;100938.38;;;11.61;93.12
43770;BME280;6597;52.218;9.882;2023-02-21T11:40:30;100938.88;;;11.47;93.70
43770;BME280;6597;52.218;9.882;2023-02-21T11:43:18;100935.63;;;11.41;94.70
43770;BME280;6597;52.218;9.882;2023-02-21T11:48:37;100921.88;;;11.33;94.88
43770;BME280;6597;52.218;9.882;2023-02-21T11:51:12;100937.19;;;11.21;95.12
43770;BME280;6597;52.218;9.882;2023-02-21T11:53:43;100946.66;;;11.26;95.65
43770;BME280;6597;52.218;9.882;2023-02-21T11:56:19;100933.19;;;11.35;95.26
43770;BME280;6597;52.218;9.882;2023-02-21T11:58:54;100934.31;;;11.52;94.33
43770;BME280;6597;52.218;9.882;2023-02-21T12:01:26;100938.84;;;11.49;93.57
43770;BME280;6597;52.218;9.882;2023-02-21T12:04:20;100946.78;;;11.47;94.60
43770;BME280;6597;52.218;9.882;2023-02-21T12:06:53;100939.59;;;11.52;94.56
43770;BME280;6597;52.218;9.882;2023-02-21T12:09:26;100935.00;;;11.58;93.76
43770;BME280;6597;52.218;9.882;2023-02-21T12:12:05;100932.38;;;11.58;94.07
43770;BME280;6597;52.218;9.882;2023-02-21T12:14:45;100924.84;;;11.48;93.99
43770;BME280;6597;52.218;9.882;2023-02-21T12:17:28;100923.47;;;11.62;93.80
43770;BME280;6597;52.218;9.882;2023-02-21T12:20:15;100915.75;;;11.82;92.21
43770;BME280;6597;52.218;9.882;2023-02-21T12:23:06;100919.22;;;12.50;89.32
43770;BME280;6597;52.218;9.882;2023-02-21T12:25:46;100918.41;;;13.32;86.45
43770;BME280;6597;52.218;9.882;2023-02-21T12:28:23;100916.25;;;13.60;81.41
43770;BME280;6597;52.218;9.882;2023-02-21T12:31:03;100904.53;;;13.86;80.37
43770;BME280;6597;52.218;9.882;2023-02-21T12:33:42;100923.28;;;14.18;78.27
43770;BME280;6597;52.218;9.882;2023-02-21T12:36:16;100913.31;;;14.06;77.69
43770;BME280;6597;52.218;9.882;2023-02-21T12:39:02;100914.00;;;13.72;78.19
43770;BME280;6597;52.218;9.882;2023-02-21T12:41:48;100910.06;;;13.22;80.60
43770;BME280;6597;52.218;9.882;2023-02-21T12:44:26;100906.91;;;12.72;83.73
43770;BME280;6597;52.218;9.882;2023-02-21T12:46:58;100909.50;;;12.52;84.92
43770;BME280;6597;52.218;9.882;2023-02-21T12:49:31;100902.75;;;12.44;84.65
43770;BME280;6597;52.218;9.882;2023-02-21T12:52:03;100904.72;;;12.39;84.96
43770;BME280;6597;52.218;9.882;2023-02-21T12:54:38;100900.31;;;12.40;85.53
43770;BME280;6597;52.218;9.882;2023-02-21T12:57:10;100904.84;;;12.36;84.62
43770;BME280;6597;52.218;9.882;2023-02-21T12:59:49;100892.84;;;12.29;84.86
43770;BME280;6597;52.218;9.882;2023-02-21T13:02:24;100894.63;;;12.07;86.55
43770;BME280;6597;52.218;9.882;2023-02-21T13:04:54;100897.22;;;11.85;88.12
43770;BME280;6597;52.218;9.882;2023-02-21T13:07:24;100885.34;;;11.73;88.96
43770;BME280;6597;52.218;9.882;2023-02-21T13:09:57;100891.00;;;11.63;89.70
43770;BME280;6597;52.218;9.882;2023-02-21T13:12:30;100894.44;;;11.41;89.30
43770;BME280;6597;52.218;9.882;2023-02-21T13:15:02;100893.34;;;11.70;88.79
43770;BME280;6597;52.218;9.882;2023-02-21T13:17:29;100890.94;;;12.11;86.79
43770;BME280;6597;52.218;9.882;2023-02-21T13:19:59;100889.47;;;12.48;85.32
43770;BME280;6597;52.218;9.882;2023-02-21T13:26:23;100888.34;;;12.95;81.26
43770;BME280;6597;52.218;9.882;2023-02-21T13:28:55;100877.69;;;13.19;81.20
43770;BME280;6597;52.218;9.882;2023-02-21T13:31:25;100897.59;;;13.65;78.78
43770;BME280;6597;52.218;9.882;2023-02-21T13:33:54;100887.34;;;13.78;76.58
43770;BME280;6597;52.218;9.882;2023-02-21T13:36:26;100878.16;;;13.67;77.25
43770;BME280;6597;52.218;9.882;2023-02-21T13:38:59;100879.06;;;13.85;76.49
43770;BME280;6597;52.218;9.882;2023-02-21T13:41:29;100880.63;;;14.08;75.00
43770;BME280;6597;52.218;9.882;2023-02-21T13:43:59;100877.16;;;14.25;74.91